createdAt,value
2019-03-16T00:00:12.348Z,990.78
2019-03-16T00:01:13.802Z,990.90
2019-03-16T00:02:15.209Z,990.78
2019-03-16T00:03:16.603Z,990.83
2019-03-16T00:04:17.997Z,990.84
2019-03-16T00:05:19.385Z,990.88
2019-03-16T00:06:20.781Z,990.90
2019-03-16T00:07:32.460Z,990.80
2019-03-16T00:08:23.560Z,990.82
2019-03-16T00:09:24.946Z,990.86
2019-03-16T00:10:26.408Z,990.89
2019-03-16T00:11:27.809Z,990.84
2019-03-16T00:12:29.251Z,990.92
2019-03-16T00:13:30.620Z,990.99
2019-03-16T00:14:32.034Z,990.93
2019-03-16T00:15:33.430Z,991.04
2019-03-16T00:16:34.818Z,991.02
2019-03-16T00:17:36.226Z,991.11
2019-03-16T00:18:37.616Z,990.99
2019-03-16T00:19:44.227Z,991.09
2019-03-16T00:20:45.379Z,991.09
2019-03-16T00:21:46.782Z,991.11
2019-03-16T00:22:48.192Z,991.15
2019-03-16T00:23:49.600Z,991.14
2019-03-16T00:24:51.005Z,991.19
2019-03-16T00:25:52.422Z,991.29
2019-03-16T00:26:53.864Z,991.30
2019-03-16T00:27:55.285Z,991.37
2019-03-16T00:28:56.776Z,991.40
2019-03-16T00:29:58.181Z,991.40
2019-03-16T00:30:59.624Z,991.40
2019-03-16T00:32:12.833Z,991.49
2019-03-16T00:33:02.471Z,991.45
2019-03-16T00:34:03.898Z,991.50
2019-03-16T00:35:05.325Z,991.53
2019-03-16T00:36:06.722Z,991.48
2019-03-16T00:37:08.155Z,991.52
2019-03-16T00:38:09.564Z,991.50
2019-03-16T00:39:11.019Z,991.48
2019-03-16T00:40:12.439Z,991.55
2019-03-16T00:41:13.844Z,991.57
2019-03-16T00:42:15.299Z,991.52
2019-03-16T00:43:16.717Z,991.49
2019-03-16T00:44:18.137Z,991.55
2019-03-16T00:45:19.534Z,991.54
2019-03-16T00:46:20.978Z,991.53
2019-03-16T00:47:22.410Z,991.53
2019-03-16T00:48:23.911Z,991.51
2019-03-16T00:49:25.341Z,991.45
2019-03-16T00:50:26.730Z,991.46
2019-03-16T00:51:28.144Z,991.45
2019-03-16T00:52:29.536Z,991.39
2019-03-16T00:53:30.929Z,991.44
2019-03-16T00:54:32.355Z,991.44
2019-03-16T00:55:33.740Z,991.54
2019-03-16T00:56:35.144Z,991.54
2019-03-16T00:57:36.571Z,991.48
2019-03-16T00:58:37.970Z,991.46
2019-03-16T00:59:39.362Z,991.46
2019-03-16T01:00:40.771Z,991.48
2019-03-16T01:01:42.168Z,991.43
2019-03-16T01:02:43.561Z,991.49
2019-03-16T01:03:44.993Z,991.57
2019-03-16T01:04:46.420Z,991.59
2019-03-16T01:05:47.823Z,991.70
2019-03-16T01:06:49.246Z,991.67
2019-03-16T01:07:50.706Z,991.70
2019-03-16T01:08:52.115Z,991.77
2019-03-16T01:09:53.535Z,991.82
2019-03-16T01:10:54.953Z,991.77
2019-03-16T01:11:57.631Z,991.74
2019-03-16T01:12:59.044Z,991.75
2019-03-16T01:14:00.453Z,991.78
2019-03-16T01:15:01.871Z,991.77
2019-03-16T01:16:03.285Z,991.74
2019-03-16T01:17:04.695Z,991.76
2019-03-16T01:18:06.126Z,991.84
2019-03-16T01:19:07.610Z,991.80
2019-03-16T01:20:09.025Z,991.84
2019-03-16T01:21:10.518Z,991.74
2019-03-16T01:22:11.954Z,991.83
2019-03-16T01:23:13.366Z,991.82
2019-03-16T01:24:14.780Z,991.83
2019-03-16T01:25:16.234Z,991.79
2019-03-16T01:26:17.644Z,991.83
2019-03-16T01:27:19.054Z,991.90
2019-03-16T01:28:20.464Z,992.02
2019-03-16T01:29:21.855Z,991.95
2019-03-16T01:30:23.263Z,992.02
2019-03-16T01:31:24.695Z,991.98
2019-03-16T01:32:39.620Z,992.05
2019-03-16T01:33:27.450Z,992.05
2019-03-16T01:34:28.895Z,992.08
2019-03-16T01:35:30.291Z,992.16
2019-03-16T01:36:31.721Z,992.13
2019-03-16T01:37:33.148Z,992.23
2019-03-16T01:38:34.612Z,992.31
2019-03-16T01:39:36.021Z,992.19
2019-03-16T01:40:37.417Z,992.19
2019-03-16T01:41:38.813Z,992.16
2019-03-16T01:42:40.228Z,992.20
2019-03-16T01:43:41.620Z,992.12
2019-03-16T01:44:43.024Z,992.23
2019-03-16T01:45:44.415Z,992.13
2019-03-16T01:46:45.862Z,992.11
2019-03-16T01:47:47.313Z,992.20
2019-03-16T01:48:48.725Z,992.15
2019-03-16T01:49:50.115Z,992.26
2019-03-16T01:50:51.525Z,992.21
2019-03-16T01:51:52.930Z,992.22
2019-03-16T01:52:54.332Z,992.25
2019-03-16T01:53:55.734Z,992.25
2019-03-16T01:54:57.136Z,992.26
2019-03-16T01:55:58.561Z,992.24
2019-03-16T01:56:59.988Z,992.37
2019-03-16T01:58:01.433Z,992.36
2019-03-16T01:59:02.830Z,992.38
2019-03-16T02:00:04.242Z,992.43
2019-03-16T02:01:05.653Z,992.40
2019-03-16T02:02:07.065Z,992.45
2019-03-16T02:03:08.449Z,992.56
2019-03-16T02:04:09.861Z,992.46
2019-03-16T02:05:11.259Z,992.44
2019-03-16T02:06:12.657Z,992.54
2019-03-16T02:07:14.151Z,992.52
2019-03-16T02:08:15.511Z,992.62
2019-03-16T02:09:16.928Z,992.59
2019-03-16T02:10:18.325Z,992.58
2019-03-16T02:11:19.715Z,992.65
2019-03-16T02:12:21.113Z,992.59
2019-03-16T02:13:22.512Z,992.59
2019-03-16T02:14:23.917Z,992.68
2019-03-16T02:15:25.381Z,992.68
2019-03-16T02:16:26.776Z,992.65
2019-03-16T02:17:28.816Z,992.76
2019-03-16T02:18:30.312Z,992.76
2019-03-16T02:19:31.636Z,992.84
2019-03-16T02:20:33.058Z,992.78
2019-03-16T02:21:34.567Z,992.84
2019-03-16T02:22:35.805Z,992.86
2019-03-16T02:23:37.207Z,992.91
2019-03-16T02:24:38.641Z,992.90
2019-03-16T02:25:40.053Z,992.92
2019-03-16T02:26:41.446Z,992.84
2019-03-16T02:27:42.851Z,992.91
2019-03-16T02:28:44.246Z,992.88
2019-03-16T02:29:45.640Z,993.00
2019-03-16T02:30:47.020Z,993.06
2019-03-16T02:31:48.422Z,993.19
2019-03-16T02:32:49.835Z,993.08
2019-03-16T02:33:51.929Z,993.17
2019-03-16T02:34:53.379Z,993.22
2019-03-16T02:35:54.845Z,993.21
2019-03-16T02:36:56.273Z,993.15
2019-03-16T02:37:57.699Z,993.18
2019-03-16T02:38:59.097Z,993.16
2019-03-16T02:40:00.482Z,993.20
2019-03-16T02:41:01.893Z,993.12
2019-03-16T02:42:03.295Z,993.11
2019-03-16T02:43:04.700Z,993.23
2019-03-16T02:44:06.157Z,993.12
2019-03-16T02:45:07.622Z,993.18
2019-03-16T02:46:09.004Z,993.21
2019-03-16T02:47:10.408Z,993.24
2019-03-16T02:48:12.720Z,993.30
2019-03-16T02:49:14.201Z,993.31
2019-03-16T02:50:15.531Z,993.26
2019-03-16T02:51:16.962Z,993.32
2019-03-16T02:52:18.365Z,993.30
2019-03-16T02:53:19.797Z,993.35
2019-03-16T02:54:21.236Z,993.32
2019-03-16T02:55:22.776Z,993.49
2019-03-16T02:56:24.180Z,993.42
2019-03-16T02:57:25.572Z,993.43
2019-03-16T02:58:27.065Z,993.51
2019-03-16T02:59:28.461Z,993.50
2019-03-16T03:00:29.875Z,993.46
2019-03-16T03:01:31.268Z,993.57
2019-03-16T03:02:32.665Z,993.54
2019-03-16T03:03:34.045Z,993.57
2019-03-16T03:04:35.463Z,993.61
2019-03-16T03:05:36.902Z,993.63
2019-03-16T03:06:38.304Z,993.68
2019-03-16T03:07:39.714Z,993.69
2019-03-16T03:08:41.135Z,993.69
2019-03-16T03:09:42.551Z,993.77
2019-03-16T03:10:43.946Z,993.82
2019-03-16T03:11:45.356Z,993.82
2019-03-16T03:12:46.793Z,993.92
2019-03-16T03:13:48.266Z,993.90
2019-03-16T03:14:49.673Z,993.90
2019-03-16T03:15:51.082Z,993.82
2019-03-16T03:16:52.484Z,993.75
2019-03-16T03:17:53.946Z,993.87
2019-03-16T03:18:55.368Z,993.88
2019-03-16T03:19:56.777Z,993.94
2019-03-16T03:20:58.176Z,993.92
2019-03-16T03:21:59.610Z,993.94
2019-03-16T03:23:01.095Z,993.92
2019-03-16T03:24:02.501Z,994.04
2019-03-16T03:25:03.910Z,993.98
2019-03-16T03:26:05.315Z,994.04
2019-03-16T03:27:06.709Z,994.03
2019-03-16T03:28:08.112Z,994.00
2019-03-16T03:29:09.508Z,994.05
2019-03-16T03:30:10.956Z,994.01
2019-03-16T03:31:12.385Z,994.03
2019-03-16T03:32:13.812Z,993.98
2019-03-16T03:33:15.247Z,993.98
2019-03-16T03:34:16.635Z,994.06
2019-03-16T03:35:18.038Z,994.13
2019-03-16T03:36:19.449Z,994.12
2019-03-16T03:37:20.853Z,994.07
2019-03-16T03:38:22.239Z,994.20
2019-03-16T03:39:23.634Z,994.19
2019-03-16T03:40:25.068Z,994.28
2019-03-16T03:41:26.490Z,994.27
2019-03-16T03:42:27.873Z,994.31
2019-03-16T03:43:29.306Z,994.35
2019-03-16T03:44:30.704Z,994.32
2019-03-16T03:45:32.109Z,994.38
2019-03-16T03:46:33.527Z,994.38
2019-03-16T03:47:35.113Z,994.42
2019-03-16T03:48:36.520Z,994.49
2019-03-16T03:49:37.958Z,994.50
2019-03-16T03:50:39.345Z,994.40
2019-03-16T03:51:40.732Z,994.46
2019-03-16T03:52:42.123Z,994.50
2019-03-16T03:53:43.522Z,994.51
2019-03-16T03:54:44.908Z,994.48
2019-03-16T03:55:46.292Z,994.47
2019-03-16T03:56:47.698Z,994.53
2019-03-16T03:57:49.095Z,994.52
2019-03-16T03:58:50.483Z,994.47
2019-03-16T03:59:51.978Z,994.46
2019-03-16T04:00:53.236Z,994.45
2019-03-16T04:01:54.621Z,994.50
2019-03-16T04:02:56.841Z,994.48
2019-03-16T04:04:14.113Z,994.57
2019-03-16T04:04:59.580Z,994.61
2019-03-16T04:06:00.978Z,994.64
2019-03-16T04:07:02.393Z,994.71
2019-03-16T04:08:03.824Z,994.68
2019-03-16T04:09:05.150Z,994.70
2019-03-16T04:10:06.545Z,994.73
2019-03-16T04:11:07.941Z,994.75
2019-03-16T04:12:09.335Z,994.68
2019-03-16T04:13:10.723Z,994.73
2019-03-16T04:14:12.151Z,994.70
2019-03-16T04:15:13.537Z,994.65
2019-03-16T04:16:14.931Z,994.66
2019-03-16T04:17:16.312Z,994.66
2019-03-16T04:18:17.707Z,994.74
2019-03-16T04:19:19.120Z,994.62
2019-03-16T04:20:20.499Z,994.70
2019-03-16T04:21:21.890Z,994.64
2019-03-16T04:22:23.270Z,994.77
2019-03-16T04:23:24.662Z,994.77
2019-03-16T04:24:26.046Z,994.79
2019-03-16T04:25:27.440Z,994.74
2019-03-16T04:26:28.860Z,994.78
2019-03-16T04:27:30.254Z,994.84
2019-03-16T04:28:31.644Z,994.78
2019-03-16T04:29:33.036Z,994.81
2019-03-16T04:30:34.422Z,994.78
2019-03-16T04:31:35.810Z,994.74
2019-03-16T04:32:37.199Z,994.80
2019-03-16T04:33:38.596Z,994.79
2019-03-16T04:34:39.980Z,994.75
2019-03-16T04:35:41.373Z,994.72
2019-03-16T04:36:42.765Z,994.76
2019-03-16T04:37:44.155Z,994.74
2019-03-16T04:38:45.550Z,994.82
2019-03-16T04:39:46.942Z,994.78
2019-03-16T04:40:48.329Z,994.71
2019-03-16T04:41:49.719Z,994.76
2019-03-16T04:42:51.104Z,994.80
2019-03-16T04:43:52.534Z,994.86
2019-03-16T04:44:53.928Z,994.87
2019-03-16T04:45:55.328Z,994.83
2019-03-16T04:46:56.754Z,994.84
2019-03-16T04:47:58.127Z,994.94
2019-03-16T04:48:59.521Z,994.88
2019-03-16T04:50:00.916Z,994.93
2019-03-16T04:51:02.317Z,994.94
2019-03-16T04:52:03.702Z,994.96
2019-03-16T04:53:05.103Z,994.95
2019-03-16T04:54:06.493Z,995.02
2019-03-16T04:55:07.889Z,994.95
2019-03-16T04:56:09.285Z,994.98
2019-03-16T04:57:10.695Z,994.99
2019-03-16T04:58:12.095Z,994.95
2019-03-16T04:59:13.501Z,994.93
2019-03-16T05:00:14.889Z,994.93
2019-03-16T05:01:16.287Z,994.90
2019-03-16T05:02:17.673Z,994.90
2019-03-16T05:03:19.077Z,995.00
2019-03-16T05:04:20.463Z,995.07
2019-03-16T05:05:21.874Z,995.09
2019-03-16T05:06:23.274Z,995.03
2019-03-16T05:07:24.673Z,995.10
2019-03-16T05:08:26.068Z,995.10
2019-03-16T05:09:27.467Z,995.09
2019-03-16T05:10:28.856Z,995.09
2019-03-16T05:11:30.244Z,995.07
2019-03-16T05:12:31.642Z,995.09
2019-03-16T05:13:33.028Z,995.17
2019-03-16T05:14:34.418Z,995.11
2019-03-16T05:15:35.813Z,995.22
2019-03-16T05:16:37.201Z,995.20
2019-03-16T05:17:38.595Z,995.26
2019-03-16T05:18:39.975Z,995.28
2019-03-16T05:19:41.373Z,995.27
2019-03-16T05:20:42.777Z,995.23
2019-03-16T05:21:44.153Z,995.30
2019-03-16T05:22:45.549Z,995.28
2019-03-16T05:23:46.985Z,995.37
2019-03-16T05:24:48.359Z,995.39
2019-03-16T05:25:49.776Z,995.37
2019-03-16T05:26:51.199Z,995.39
2019-03-16T05:27:52.607Z,995.37
2019-03-16T05:28:54.825Z,995.41
2019-03-16T05:29:56.228Z,995.48
2019-03-16T05:30:57.669Z,995.43
2019-03-16T05:31:59.120Z,995.44
2019-03-16T05:33:00.476Z,995.46
2019-03-16T05:34:01.892Z,995.49
2019-03-16T05:35:03.281Z,995.52
2019-03-16T05:36:04.666Z,995.51
2019-03-16T05:37:06.058Z,995.54
2019-03-16T05:38:07.449Z,995.62
2019-03-16T05:39:08.834Z,995.69
2019-03-16T05:40:10.226Z,995.68
2019-03-16T05:41:11.628Z,995.67
2019-03-16T05:42:13.007Z,995.69
2019-03-16T05:43:14.396Z,995.70
2019-03-16T05:44:15.786Z,995.68
2019-03-16T05:45:17.166Z,995.71
2019-03-16T05:46:18.560Z,995.71
2019-03-16T05:47:19.944Z,995.81
2019-03-16T05:48:21.337Z,995.83
2019-03-16T05:49:22.734Z,995.80
2019-03-16T05:50:24.121Z,995.86
2019-03-16T05:51:25.505Z,995.87
2019-03-16T05:52:26.901Z,995.81
2019-03-16T05:53:28.293Z,995.79
2019-03-16T05:54:29.677Z,995.80
2019-03-16T05:55:31.067Z,995.89
2019-03-16T05:56:32.457Z,995.93
2019-03-16T05:57:33.846Z,995.91
2019-03-16T05:58:35.253Z,995.90
2019-03-16T05:59:36.644Z,995.90
2019-03-16T06:00:38.027Z,995.89
2019-03-16T06:01:39.424Z,995.99
2019-03-16T06:02:40.810Z,995.98
2019-03-16T06:03:42.226Z,996.00
2019-03-16T06:04:43.638Z,996.01
2019-03-16T06:05:45.066Z,996.03
2019-03-16T06:06:46.458Z,996.03
2019-03-16T06:07:47.946Z,996.02
2019-03-16T06:08:49.293Z,996.12
2019-03-16T06:09:50.699Z,996.08
2019-03-16T06:10:52.092Z,996.06
2019-03-16T06:11:53.484Z,996.05
2019-03-16T06:12:54.875Z,996.12
2019-03-16T06:13:56.265Z,996.16
2019-03-16T06:14:57.655Z,996.19
2019-03-16T06:15:59.057Z,996.19
2019-03-16T06:17:00.509Z,996.20
2019-03-16T06:18:01.897Z,996.22
2019-03-16T06:19:03.293Z,996.24
2019-03-16T06:20:04.727Z,996.29
2019-03-16T06:21:06.119Z,996.31
2019-03-16T06:22:07.503Z,996.31
2019-03-16T06:23:08.916Z,996.36
2019-03-16T06:24:10.295Z,996.30
2019-03-16T06:25:11.704Z,996.30
2019-03-16T06:26:13.107Z,996.34
2019-03-16T06:27:14.512Z,996.38
2019-03-16T06:28:15.924Z,996.42
2019-03-16T06:29:18.296Z,996.43
2019-03-16T06:30:20.784Z,996.35
2019-03-16T06:31:21.035Z,996.38
2019-03-16T06:32:22.432Z,996.39
2019-03-16T06:33:23.847Z,996.36
2019-03-16T06:34:25.234Z,996.45
2019-03-16T06:35:29.286Z,996.41
2019-03-16T06:36:27.998Z,996.41
2019-03-16T06:37:29.382Z,996.43
2019-03-16T06:38:30.796Z,996.40
2019-03-16T06:39:32.184Z,996.43
2019-03-16T06:40:33.588Z,996.41
2019-03-16T06:41:34.977Z,996.41
2019-03-16T06:42:36.369Z,996.50
2019-03-16T06:43:37.761Z,996.53
2019-03-16T06:44:39.157Z,996.53
2019-03-16T06:45:40.567Z,996.52
2019-03-16T06:46:41.959Z,996.58
2019-03-16T06:47:43.360Z,996.56
2019-03-16T06:48:44.749Z,996.57
2019-03-16T06:49:46.147Z,996.64
2019-03-16T06:50:47.565Z,996.64
2019-03-16T06:51:48.949Z,996.65
2019-03-16T06:52:50.355Z,996.67
2019-03-16T06:53:51.767Z,996.62
2019-03-16T06:54:53.161Z,996.64
2019-03-16T06:55:54.567Z,996.68
2019-03-16T06:56:55.948Z,996.69
2019-03-16T06:57:57.352Z,996.78
2019-03-16T06:58:58.757Z,996.67
2019-03-16T07:00:00.145Z,996.77
2019-03-16T07:01:01.537Z,996.71
2019-03-16T07:02:02.950Z,996.72
2019-03-16T07:03:04.345Z,996.65
2019-03-16T07:04:05.742Z,996.61
2019-03-16T07:05:07.142Z,996.75
2019-03-16T07:06:08.530Z,996.70
2019-03-16T07:07:09.915Z,996.71
2019-03-16T07:08:11.326Z,996.81
2019-03-16T07:09:12.712Z,996.88
2019-03-16T07:10:14.114Z,996.82
2019-03-16T07:11:15.512Z,996.90
2019-03-16T07:12:16.911Z,996.85
2019-03-16T07:13:18.335Z,996.97
2019-03-16T07:14:19.725Z,997.03
2019-03-16T07:15:21.147Z,996.99
2019-03-16T07:16:22.507Z,997.01
2019-03-16T07:17:23.917Z,997.21
2019-03-16T07:18:25.313Z,997.38
2019-03-16T07:19:26.713Z,997.23
2019-03-16T07:20:28.117Z,997.24
2019-03-16T07:21:29.491Z,997.44
2019-03-16T07:22:30.899Z,997.37
2019-03-16T07:23:32.386Z,997.14
2019-03-16T07:24:33.607Z,997.05
2019-03-16T07:25:34.997Z,997.16
2019-03-16T07:26:36.389Z,997.20
2019-03-16T07:27:37.787Z,998.60
2019-03-16T07:28:39.184Z,998.86
2019-03-16T07:29:40.586Z,998.95
2019-03-16T07:30:42.010Z,998.41
2019-03-16T07:31:43.400Z,997.53
2019-03-16T07:32:44.796Z,997.60
2019-03-16T07:33:46.209Z,997.22
2019-03-16T07:34:47.622Z,997.54
2019-03-16T07:35:49.009Z,997.23
2019-03-16T07:36:50.409Z,997.71
2019-03-16T07:37:51.813Z,997.78
2019-03-16T07:38:53.236Z,997.37
2019-03-16T07:39:54.628Z,997.52
2019-03-16T07:40:56.048Z,997.45
2019-03-16T07:42:00.374Z,997.48
2019-03-16T07:42:58.832Z,997.81
2019-03-16T07:44:00.243Z,997.20
2019-03-16T07:45:08.216Z,997.57
2019-03-16T07:46:03.019Z,997.68
2019-03-16T07:47:04.420Z,997.50
2019-03-16T07:48:05.813Z,997.73
2019-03-16T07:49:07.216Z,997.63
2019-03-16T07:50:08.641Z,997.64
2019-03-16T07:51:10.047Z,997.67
2019-03-16T07:52:11.455Z,997.77
2019-03-16T07:53:12.854Z,999.91
2019-03-16T07:54:14.289Z,997.74
2019-03-16T07:55:15.706Z,997.68
2019-03-16T07:56:17.101Z,999.16
2019-03-16T07:57:18.513Z,997.75
2019-03-16T07:58:19.906Z,997.83
2019-03-16T07:59:21.303Z,998.09
2019-03-16T08:00:22.700Z,997.92
2019-03-16T08:01:24.104Z,997.98
2019-03-16T08:02:25.586Z,998.08
2019-03-16T08:05:52.040Z,998.16
2019-03-16T08:06:55.145Z,999.40
2019-03-16T08:07:58.939Z,1000.30
2019-03-16T08:09:02.283Z,1000.07
2019-03-16T08:10:06.821Z,999.98
2019-03-16T08:11:09.266Z,997.92
2019-03-16T08:12:12.647Z,998.10
2019-03-16T08:13:15.484Z,999.45
2019-03-16T08:14:17.881Z,997.88
2019-03-16T08:15:20.486Z,997.81
2019-03-16T08:16:22.977Z,997.72
2019-03-16T08:17:25.204Z,997.76
2019-03-16T08:18:27.813Z,997.74
2019-03-16T08:19:31.689Z,997.88
2019-03-16T08:20:34.344Z,998.01
2019-03-16T08:21:37.857Z,997.96
2019-03-16T08:22:40.946Z,997.91
2019-03-16T08:23:42.804Z,997.87
2019-03-16T08:24:44.355Z,997.92
2019-03-16T08:25:45.765Z,997.86
2019-03-16T08:26:47.182Z,997.82
2019-03-16T08:27:54.132Z,997.92
2019-03-16T08:28:49.954Z,998.30
2019-03-16T08:29:51.440Z,998.89
2019-03-16T08:30:52.927Z,999.39
2019-03-16T08:31:54.408Z,998.21
2019-03-16T08:32:55.770Z,998.38
2019-03-16T08:33:57.195Z,998.30
2019-03-16T08:35:00.460Z,998.37
2019-03-16T08:36:00.018Z,998.21
2019-03-16T08:37:01.453Z,998.19
2019-03-16T08:38:02.850Z,998.07
2019-03-16T08:39:04.279Z,998.07
2019-03-16T08:40:05.704Z,998.89
2019-03-16T08:41:07.131Z,999.05
2019-03-16T08:42:08.541Z,998.09
2019-03-16T08:43:09.953Z,998.48
2019-03-16T08:44:11.430Z,998.17
2019-03-16T08:45:12.901Z,998.17
2019-03-16T08:46:14.323Z,998.27
2019-03-16T08:47:15.803Z,997.98
2019-03-16T08:48:22.674Z,998.07
2019-03-16T08:49:18.684Z,998.18
2019-03-16T08:50:20.110Z,998.45
2019-03-16T08:51:21.546Z,998.19
2019-03-16T08:52:22.940Z,998.06
2019-03-16T08:53:24.371Z,997.82
2019-03-16T08:54:25.816Z,997.81
2019-03-16T08:55:27.254Z,997.96
2019-03-16T08:56:28.706Z,998.08
2019-03-16T08:57:30.170Z,997.90
2019-03-16T08:58:31.653Z,997.80
2019-03-16T08:59:33.068Z,998.00
2019-03-16T09:00:34.494Z,998.06
2019-03-16T09:01:35.935Z,998.13
2019-03-16T09:02:37.371Z,998.15
2019-03-16T09:03:43.829Z,998.16
2019-03-16T09:04:46.549Z,998.27
2019-03-16T09:05:50.340Z,998.09
2019-03-16T09:06:53.168Z,998.18
2019-03-16T09:07:56.723Z,998.36
2019-03-16T09:08:59.994Z,998.24
2019-03-16T09:10:05.009Z,998.07
2019-03-16T09:11:09.068Z,997.91
2019-03-16T09:12:10.470Z,997.97
2019-03-16T09:13:11.875Z,998.03
2019-03-16T09:14:13.300Z,997.82
2019-03-16T09:15:14.731Z,998.04
2019-03-16T09:16:16.150Z,998.04
2019-03-16T09:17:17.580Z,998.19
2019-03-16T09:18:19.004Z,997.97
2019-03-16T09:19:20.438Z,997.92
2019-03-16T09:20:21.845Z,997.82
2019-03-16T09:21:23.262Z,997.94
2019-03-16T09:22:24.718Z,997.89
2019-03-16T09:23:26.146Z,997.93
2019-03-16T09:24:27.592Z,998.08
2019-03-16T09:25:29.005Z,997.98
2019-03-16T09:26:30.427Z,997.95
2019-03-16T09:27:31.878Z,997.89
2019-03-16T09:28:33.317Z,998.31
2019-03-16T09:29:34.738Z,998.31
2019-03-16T09:30:36.162Z,998.40
2019-03-16T09:31:37.560Z,998.42
2019-03-16T09:32:38.971Z,998.14
2019-03-16T09:33:40.386Z,998.12
2019-03-16T09:34:41.791Z,998.36
2019-03-16T09:35:43.225Z,998.74
2019-03-16T09:36:44.617Z,998.09
2019-03-16T09:37:46.025Z,998.18
2019-03-16T09:38:47.433Z,998.01
2019-03-16T09:39:48.835Z,998.29
2019-03-16T09:40:50.233Z,998.22
2019-03-16T09:41:51.637Z,998.30
2019-03-16T09:42:53.034Z,998.30
2019-03-16T09:43:54.437Z,998.26
2019-03-16T09:44:55.843Z,998.62
2019-03-16T09:45:57.201Z,998.76
2019-03-16T09:46:58.607Z,998.89
2019-03-16T09:48:00.000Z,998.85
2019-03-16T09:49:01.400Z,998.52
2019-03-16T09:50:02.807Z,998.23
2019-03-16T09:51:04.209Z,998.08
2019-03-16T09:52:05.629Z,998.25
2019-03-16T09:53:07.036Z,998.19
2019-03-16T09:54:08.440Z,998.37
2019-03-16T09:55:09.851Z,998.36
2019-03-16T09:56:11.257Z,998.52
2019-03-16T09:57:12.655Z,998.93
2019-03-16T09:58:14.065Z,998.58
2019-03-16T09:59:15.486Z,998.54
2019-03-16T10:00:16.895Z,998.47
2019-03-16T10:01:18.295Z,998.53
2019-03-16T10:02:19.697Z,998.62
2019-03-16T10:03:21.077Z,998.92
2019-03-16T10:04:22.473Z,999.04
2019-03-16T10:05:23.881Z,999.03
2019-03-16T10:06:25.290Z,998.94
2019-03-16T10:07:26.695Z,999.01
2019-03-16T10:08:28.101Z,998.81
2019-03-16T10:09:29.504Z,998.74
2019-03-16T10:10:30.916Z,998.56
2019-03-16T10:11:32.319Z,998.38
2019-03-16T10:12:33.729Z,998.48
2019-03-16T10:13:35.154Z,998.67
2019-03-16T10:14:37.294Z,998.61
2019-03-16T10:15:37.917Z,998.52
2019-03-16T10:16:39.325Z,998.43
2019-03-16T10:17:40.725Z,998.40
2019-03-16T10:18:42.129Z,998.19
2019-03-16T10:19:43.522Z,998.22
2019-03-16T10:20:44.935Z,998.28
2019-03-16T10:21:46.333Z,998.16
2019-03-16T10:22:47.734Z,998.48
2019-03-16T10:23:49.132Z,998.37
2019-03-16T10:24:50.540Z,998.56
2019-03-16T10:25:51.950Z,998.48
2019-03-16T10:26:53.362Z,998.33
2019-03-16T10:27:54.758Z,998.40
2019-03-16T10:28:56.168Z,998.60
2019-03-16T10:29:57.564Z,998.36
2019-03-16T10:30:58.975Z,998.32
2019-03-16T10:32:00.396Z,998.31
2019-03-16T10:33:01.796Z,998.38
2019-03-16T10:34:03.216Z,998.74
2019-03-16T10:35:04.625Z,998.80
2019-03-16T10:36:06.028Z,998.76
2019-03-16T10:37:07.461Z,998.54
2019-03-16T10:38:08.875Z,998.33
2019-03-16T10:39:10.275Z,998.41
2019-03-16T10:40:11.685Z,998.36
2019-03-16T10:41:13.092Z,998.39
2019-03-16T10:42:14.498Z,998.35
2019-03-16T10:43:15.904Z,998.42
2019-03-16T10:44:17.307Z,998.58
2019-03-16T10:45:18.718Z,998.65
2019-03-16T10:46:20.114Z,998.61
2019-03-16T10:47:21.530Z,998.60
2019-03-16T10:48:22.945Z,998.41
2019-03-16T10:49:24.353Z,998.51
2019-03-16T10:50:25.760Z,998.63
2019-03-16T10:51:27.821Z,998.50
2019-03-16T10:52:28.524Z,998.53
2019-03-16T10:53:29.930Z,998.69
2019-03-16T10:54:31.366Z,998.72
2019-03-16T10:55:32.764Z,998.70
2019-03-16T10:56:34.170Z,998.61
2019-03-16T10:57:35.576Z,998.66
2019-03-16T10:58:36.998Z,998.47
2019-03-16T10:59:38.414Z,998.49
2019-03-16T11:00:39.815Z,998.39
2019-03-16T11:01:41.221Z,998.45
2019-03-16T11:02:42.618Z,998.44
2019-03-16T11:03:44.040Z,998.48
2019-03-16T11:04:45.440Z,998.24
2019-03-16T11:05:46.856Z,998.30
2019-03-16T11:06:48.270Z,998.35
2019-03-16T11:07:49.683Z,998.32
2019-03-16T11:08:51.084Z,998.33
2019-03-16T11:09:52.483Z,998.27
2019-03-16T11:10:53.889Z,998.16
2019-03-16T11:11:55.288Z,998.16
2019-03-16T11:12:56.688Z,998.20
2019-03-16T11:13:58.090Z,998.22
2019-03-16T11:14:59.498Z,998.35
2019-03-16T11:16:00.894Z,998.41
2019-03-16T11:17:02.304Z,998.30
2019-03-16T11:18:03.709Z,998.27
2019-03-16T11:19:05.110Z,998.18
2019-03-16T11:20:06.520Z,998.19
2019-03-16T11:21:07.948Z,998.20
2019-03-16T11:22:09.329Z,998.24
2019-03-16T11:23:10.752Z,998.29
2019-03-16T11:24:12.154Z,998.20
2019-03-16T11:25:13.572Z,998.05
2019-03-16T11:26:14.983Z,997.99
2019-03-16T11:27:17.383Z,998.11
2019-03-16T11:28:17.774Z,998.27
2019-03-16T11:29:19.193Z,998.31
2019-03-16T11:30:20.593Z,998.36
2019-03-16T11:31:22.000Z,998.33
2019-03-16T11:32:23.413Z,998.32
2019-03-16T11:33:24.811Z,998.32
2019-03-16T11:34:26.203Z,998.31
2019-03-16T11:35:27.612Z,998.28
2019-03-16T11:36:29.009Z,998.25
2019-03-16T11:37:30.420Z,998.13
2019-03-16T11:38:31.823Z,998.18
2019-03-16T11:39:33.224Z,998.15
2019-03-16T11:40:34.626Z,998.29
2019-03-16T11:41:36.036Z,998.34
2019-03-16T11:42:37.455Z,998.34
2019-03-16T11:43:38.854Z,998.41
2019-03-16T11:44:40.249Z,998.37
2019-03-16T11:45:41.684Z,998.29
2019-03-16T11:46:43.084Z,998.28
2019-03-16T11:47:44.481Z,998.31
2019-03-16T11:48:45.884Z,998.21
2019-03-16T11:49:47.308Z,998.23
2019-03-16T11:50:48.970Z,998.27
2019-03-16T11:51:50.086Z,998.21
2019-03-16T11:52:51.476Z,998.22
2019-03-16T11:53:52.884Z,998.18
2019-03-16T11:54:54.294Z,998.11
2019-03-16T11:55:55.691Z,998.11
2019-03-16T11:56:57.101Z,998.06
2019-03-16T11:57:58.528Z,998.04
2019-03-16T11:58:59.933Z,997.97
2019-03-16T12:00:01.333Z,997.92
2019-03-16T12:01:02.733Z,997.87
2019-03-16T12:02:05.604Z,997.87
2019-03-16T12:03:05.502Z,997.91
2019-03-16T12:04:06.901Z,997.94
2019-03-16T12:05:08.299Z,997.89
2019-03-16T12:06:09.695Z,997.80
2019-03-16T12:07:11.099Z,997.74
2019-03-16T12:08:12.501Z,997.74
2019-03-16T12:09:13.902Z,997.69
2019-03-16T12:10:15.306Z,997.76
2019-03-16T12:11:16.704Z,997.68
2019-03-16T12:12:18.127Z,997.77
2019-03-16T12:13:19.765Z,997.72
2019-03-16T12:14:20.889Z,997.74
2019-03-16T12:15:22.292Z,997.69
2019-03-16T12:16:23.690Z,997.69
2019-03-16T12:17:25.098Z,997.71
2019-03-16T12:18:26.505Z,997.75
2019-03-16T12:19:27.932Z,997.78
2019-03-16T12:20:29.329Z,997.84
2019-03-16T12:21:30.729Z,997.81
2019-03-16T12:22:32.149Z,997.82
2019-03-16T12:23:33.550Z,997.78
2019-03-16T12:24:34.967Z,997.70
2019-03-16T12:25:37.354Z,997.75
2019-03-16T12:26:38.777Z,997.74
2019-03-16T12:27:40.235Z,997.71
2019-03-16T12:28:41.681Z,997.68
2019-03-16T12:29:43.069Z,997.65
2019-03-16T12:30:44.493Z,997.68
2019-03-16T12:31:45.901Z,997.65
2019-03-16T12:32:47.310Z,997.63
2019-03-16T12:33:48.723Z,997.60
2019-03-16T12:34:50.150Z,997.58
2019-03-16T12:35:51.536Z,997.58
2019-03-16T12:36:52.950Z,997.56
2019-03-16T12:37:54.369Z,997.62
2019-03-16T12:38:55.783Z,997.63
2019-03-16T12:39:57.195Z,997.61
2019-03-16T12:40:58.606Z,997.66
2019-03-16T12:42:00.016Z,997.67
2019-03-16T12:43:01.420Z,997.60
2019-03-16T12:44:02.846Z,997.66
2019-03-16T12:45:04.252Z,997.65
2019-03-16T12:46:05.678Z,997.64
2019-03-16T12:47:07.082Z,997.65
2019-03-16T12:48:08.478Z,997.67
2019-03-16T12:49:09.877Z,997.65